sensor_id;sensor_type;location;lat;lon;timestamp;temperature;humidity
48686;DHT22;34485;51.536;3.816;2023-01-31T00:00:56;3.90;99.90
48686;DHT22;34485;51.536;3.816;2023-01-31T00:03:28;4.00;99.90
48686;DHT22;34485;51.536;3.816;2023-01-31T00:05:54;4.00;99.90
48686;DHT22;34485;51.536;3.816;2023-01-31T00:08:19;4.00;99.90
48686;DHT22;34485;51.536;3.816;2023-01-31T00:10:45;4.00;99.90
48686;DHT22;34485;51.536;3.816;2023-01-31T00:13:10;4.00;99.90
48686;DHT22;34485;51.536;3.816;2023-01-31T00:15:36;4.00;99.90
48686;DHT22;34485;51.536;3.816;2023-01-31T00:18:02;4.00;99.90
48686;DHT22;34485;51.536;3.816;2023-01-31T00:20:27;4.00;99.90
48686;DHT22;34485;51.536;3.816;2023-01-31T00:22:53;4.00;99.90
48686;DHT22;34485;51.536;3.816;2023-01-31T00:25:18;4.00;99.90
48686;DHT22;34485;51.536;3.816;2023-01-31T00:27:44;4.00;99.90
48686;DHT22;34485;51.536;3.816;2023-01-31T00:30:10;4.00;99.90
48686;DHT22;34485;51.536;3.816;2023-01-31T00:32:36;3.90;99.90
48686;DHT22;34485;51.536;3.816;2023-01-31T00:35:01;3.90;99.90
48686;DHT22;34485;51.536;3.816;2023-01-31T00:37:27;3.90;99.90
48686;DHT22;34485;51.536;3.816;2023-01-31T00:39:52;3.80;99.90
48686;DHT22;34485;51.536;3.816;2023-01-31T00:42:18;3.80;99.90
48686;DHT22;34485;51.536;3.816;2023-01-31T00:44:44;3.70;99.90
48686;DHT22;34485;51.536;3.816;2023-01-31T00:47:09;3.70;99.90
48686;DHT22;34485;51.536;3.816;2023-01-31T00:49:35;3.60;99.90
48686;DHT22;34485;51.536;3.816;2023-01-31T00:52:00;3.60;99.90
48686;DHT22;34485;51.536;3.816;2023-01-31T00:54:26;3.60;99.90
48686;DHT22;34485;51.536;3.816;2023-01-31T00:56:52;3.60;99.90
48686;DHT22;34485;51.536;3.816;2023-01-31T00:59:17;3.60;99.90
48686;DHT22;34485;51.536;3.816;2023-01-31T01:01:43;3.60;99.90
48686;DHT22;34485;51.536;3.816;2023-01-31T01:04:08;3.60;99.90
48686;DHT22;34485;51.536;3.816;2023-01-31T01:06:38;3.70;99.90
48686;DHT22;34485;51.536;3.816;2023-01-31T01:09:04;3.80;99.90
48686;DHT22;34485;51.536;3.816;2023-01-31T01:11:31;3.90;99.90
48686;DHT22;34485;51.536;3.816;2023-01-31T01:13:57;3.90;99.90
48686;DHT22;34485;51.536;3.816;2023-01-31T01:16:26;4.00;99.90
48686;DHT22;34485;51.536;3.816;2023-01-31T01:18:53;3.90;99.90
48686;DHT22;34485;51.536;3.816;2023-01-31T01:21:24;3.90;99.90
48686;DHT22;34485;51.536;3.816;2023-01-31T01:23:51;3.90;99.90
48686;DHT22;34485;51.536;3.816;2023-01-31T01:26:19;3.90;99.90
48686;DHT22;34485;51.536;3.816;2023-01-31T01:28:46;3.90;99.90
48686;DHT22;34485;51.536;3.816;2023-01-31T01:31:14;4.00;99.90
48686;DHT22;34485;51.536;3.816;2023-01-31T01:33:43;4.00;99.90
48686;DHT22;34485;51.536;3.816;2023-01-31T01:36:11;4.10;99.90
48686;DHT22;34485;51.536;3.816;2023-01-31T01:38:38;4.20;99.90
48686;DHT22;34485;51.536;3.816;2023-01-31T01:41:08;4.20;99.90
48686;DHT22;34485;51.536;3.816;2023-01-31T01:43:51;4.10;99.90
48686;DHT22;34485;51.536;3.816;2023-01-31T01:48:48;4.10;99.90
48686;DHT22;34485;51.536;3.816;2023-01-31T01:51:16;4.00;99.90
48686;DHT22;34485;51.536;3.816;2023-01-31T01:53:46;4.00;99.90
48686;DHT22;34485;51.536;3.816;2023-01-31T01:56:18;4.10;99.90
48686;DHT22;34485;51.536;3.816;2023-01-31T01:59:02;4.10;99.90
48686;DHT22;34485;51.536;3.816;2023-01-31T02:01:35;4.10;99.90
48686;DHT22;34485;51.536;3.816;2023-01-31T02:04:03;4.10;99.90
48686;DHT22;34485;51.536;3.816;2023-01-31T02:06:30;4.10;99.90
48686;DHT22;34485;51.536;3.816;2023-01-31T02:08:55;4.10;99.90
48686;DHT22;34485;51.536;3.816;2023-01-31T02:11:25;4.10;99.90
48686;DHT22;34485;51.536;3.816;2023-01-31T02:14:02;4.00;99.90
48686;DHT22;34485;51.536;3.816;2023-01-31T02:16:29;4.00;99.90
48686;DHT22;34485;51.536;3.816;2023-01-31T02:18:55;4.00;99.90
48686;DHT22;34485;51.536;3.816;2023-01-31T02:21:34;3.90;99.90
48686;DHT22;34485;51.536;3.816;2023-01-31T02:26:38;3.90;99.90
48686;DHT22;34485;51.536;3.816;2023-01-31T02:34:46;3.80;99.90
48686;DHT22;34485;51.536;3.816;2023-01-31T02:37:28;3.80;99.90
48686;DHT22;34485;51.536;3.816;2023-01-31T02:40:29;3.80;99.90
48686;DHT22;34485;51.536;3.816;2023-01-31T02:45:55;3.90;99.90
48686;DHT22;34485;51.536;3.816;2023-01-31T02:48:39;4.00;99.90
48686;DHT22;34485;51.536;3.816;2023-01-31T02:51:19;4.00;99.90
48686;DHT22;34485;51.536;3.816;2023-01-31T02:59:04;3.90;99.90
48686;DHT22;34485;51.536;3.816;2023-01-31T03:01:32;3.90;99.90
48686;DHT22;34485;51.536;3.816;2023-01-31T03:04:02;3.80;99.90
48686;DHT22;34485;51.536;3.816;2023-01-31T03:09:26;3.90;99.90
48686;DHT22;34485;51.536;3.816;2023-01-31T03:12:18;3.90;99.90
48686;DHT22;34485;51.536;3.816;2023-01-31T03:15:31;3.90;99.90
48686;DHT22;34485;51.536;3.816;2023-01-31T03:18:25;3.90;99.90
48686;DHT22;34485;51.536;3.816;2023-01-31T03:21:17;3.90;99.90
48686;DHT22;34485;51.536;3.816;2023-01-31T03:23:48;3.90;99.90
48686;DHT22;34485;51.536;3.816;2023-01-31T03:26:15;3.90;99.90
48686;DHT22;34485;51.536;3.816;2023-01-31T03:28:45;4.00;99.90
48686;DHT22;34485;51.536;3.816;2023-01-31T03:31:30;4.10;99.90
48686;DHT22;34485;51.536;3.816;2023-01-31T03:34:03;4.10;99.90
48686;DHT22;34485;51.536;3.816;2023-01-31T03:49:38;4.10;99.90
48686;DHT22;34485;51.536;3.816;2023-01-31T03:52:08;4.10;99.90
48686;DHT22;34485;51.536;3.816;2023-01-31T03:54:39;4.10;99.90
48686;DHT22;34485;51.536;3.816;2023-01-31T03:57:14;4.00;99.90
48686;DHT22;34485;51.536;3.816;2023-01-31T03:59:42;4.10;99.90
48686;DHT22;34485;51.536;3.816;2023-01-31T04:02:11;4.00;99.90
48686;DHT22;34485;51.536;3.816;2023-01-31T04:04:46;4.10;99.90
48686;DHT22;34485;51.536;3.816;2023-01-31T04:07:14;4.10;99.90
48686;DHT22;34485;51.536;3.816;2023-01-31T04:09:40;4.10;99.90
48686;DHT22;34485;51.536;3.816;2023-01-31T04:12:05;4.20;99.90
48686;DHT22;34485;51.536;3.816;2023-01-31T04:14:31;4.20;99.90
48686;DHT22;34485;51.536;3.816;2023-01-31T04:16:56;4.20;99.90
48686;DHT22;34485;51.536;3.816;2023-01-31T04:19:22;4.30;99.90
48686;DHT22;34485;51.536;3.816;2023-01-31T04:21:48;4.30;99.90
48686;DHT22;34485;51.536;3.816;2023-01-31T04:24:13;4.20;99.90
48686;DHT22;34485;51.536;3.816;2023-01-31T04:26:39;4.30;99.90
48686;DHT22;34485;51.536;3.816;2023-01-31T04:29:04;4.30;99.90
48686;DHT22;34485;51.536;3.816;2023-01-31T04:31:30;4.30;99.90
48686;DHT22;34485;51.536;3.816;2023-01-31T04:33:56;4.40;99.90
48686;DHT22;34485;51.536;3.816;2023-01-31T04:36:26;4.40;99.90
48686;DHT22;34485;51.536;3.816;2023-01-31T04:38:51;4.50;99.90
48686;DHT22;34485;51.536;3.816;2023-01-31T04:41:17;4.50;99.90
48686;DHT22;34485;51.536;3.816;2023-01-31T04:43:43;4.60;99.90
48686;DHT22;34485;51.536;3.816;2023-01-31T04:46:08;4.70;99.90
48686;DHT22;34485;51.536;3.816;2023-01-31T04:48:34;4.80;99.90
48686;DHT22;34485;51.536;3.816;2023-01-31T04:51:00;4.80;99.90
48686;DHT22;34485;51.536;3.816;2023-01-31T04:53:25;4.80;99.90
48686;DHT22;34485;51.536;3.816;2023-01-31T04:55:54;4.90;99.90
48686;DHT22;34485;51.536;3.816;2023-01-31T04:58:20;4.80;99.90
48686;DHT22;34485;51.536;3.816;2023-01-31T05:00:46;4.80;99.90
48686;DHT22;34485;51.536;3.816;2023-01-31T05:03:12;4.80;99.90
48686;DHT22;34485;51.536;3.816;2023-01-31T05:05:37;4.80;99.90
48686;DHT22;34485;51.536;3.816;2023-01-31T05:08:03;4.70;99.90
48686;DHT22;34485;51.536;3.816;2023-01-31T05:10:29;4.70;99.90
48686;DHT22;34485;51.536;3.816;2023-01-31T05:12:54;4.70;99.90
48686;DHT22;34485;51.536;3.816;2023-01-31T05:15:20;4.70;99.90
48686;DHT22;34485;51.536;3.816;2023-01-31T05:17:51;4.80;99.90
48686;DHT22;34485;51.536;3.816;2023-01-31T05:20:18;4.80;99.90
48686;DHT22;34485;51.536;3.816;2023-01-31T05:22:46;4.80;99.90
48686;DHT22;34485;51.536;3.816;2023-01-31T05:25:13;4.90;99.90
48686;DHT22;34485;51.536;3.816;2023-01-31T05:27:38;4.90;99.90
48686;DHT22;34485;51.536;3.816;2023-01-31T05:30:04;4.90;99.90
48686;DHT22;34485;51.536;3.816;2023-01-31T05:32:30;4.90;99.90
48686;DHT22;34485;51.536;3.816;2023-01-31T05:34:56;4.90;99.90
48686;DHT22;34485;51.536;3.816;2023-01-31T05:37:21;4.90;99.90
48686;DHT22;34485;51.536;3.816;2023-01-31T05:39:47;4.90;99.90
48686;DHT22;34485;51.536;3.816;2023-01-31T05:42:13;4.90;99.90
48686;DHT22;34485;51.536;3.816;2023-01-31T05:44:38;4.90;99.90
48686;DHT22;34485;51.536;3.816;2023-01-31T05:47:04;5.00;99.90
48686;DHT22;34485;51.536;3.816;2023-01-31T05:49:29;5.00;99.90
48686;DHT22;34485;51.536;3.816;2023-01-31T05:51:58;5.00;99.90
48686;DHT22;34485;51.536;3.816;2023-01-31T05:54:24;5.00;99.90
48686;DHT22;34485;51.536;3.816;2023-01-31T05:56:50;5.00;99.90
48686;DHT22;34485;51.536;3.816;2023-01-31T05:59:15;5.00;99.90
48686;DHT22;34485;51.536;3.816;2023-01-31T06:01:41;5.10;99.90
48686;DHT22;34485;51.536;3.816;2023-01-31T06:04:06;5.10;99.90
48686;DHT22;34485;51.536;3.816;2023-01-31T06:06:32;5.10;99.90
48686;DHT22;34485;51.536;3.816;2023-01-31T06:08:58;5.10;99.90
48686;DHT22;34485;51.536;3.816;2023-01-31T06:11:23;5.10;99.90
48686;DHT22;34485;51.536;3.816;2023-01-31T06:16:18;5.10;99.90
48686;DHT22;34485;51.536;3.816;2023-01-31T06:18:44;5.10;99.90
48686;DHT22;34485;51.536;3.816;2023-01-31T06:21:09;5.10;99.90
48686;DHT22;34485;51.536;3.816;2023-01-31T06:23:36;5.10;99.90
48686;DHT22;34485;51.536;3.816;2023-01-31T06:26:02;5.10;99.90
48686;DHT22;34485;51.536;3.816;2023-01-31T06:28:27;5.10;99.90
48686;DHT22;34485;51.536;3.816;2023-01-31T06:30:53;5.10;99.90
48686;DHT22;34485;51.536;3.816;2023-01-31T06:33:18;5.20;99.90
48686;DHT22;34485;51.536;3.816;2023-01-31T06:35:44;5.10;99.90
48686;DHT22;34485;51.536;3.816;2023-01-31T06:38:09;5.10;99.90
48686;DHT22;34485;51.536;3.816;2023-01-31T06:40:37;5.20;99.90
48686;DHT22;34485;51.536;3.816;2023-01-31T06:43:03;5.20;99.90
48686;DHT22;34485;51.536;3.816;2023-01-31T06:45:29;5.20;99.90
48686;DHT22;34485;51.536;3.816;2023-01-31T06:47:54;5.20;99.90
48686;DHT22;34485;51.536;3.816;2023-01-31T06:50:20;5.30;99.90
48686;DHT22;34485;51.536;3.816;2023-01-31T06:52:45;5.30;99.90
48686;DHT22;34485;51.536;3.816;2023-01-31T06:55:11;5.30;99.90
48686;DHT22;34485;51.536;3.816;2023-01-31T06:57:45;5.30;99.90
48686;DHT22;34485;51.536;3.816;2023-01-31T07:00:12;5.40;99.90
48686;DHT22;34485;51.536;3.816;2023-01-31T07:02:37;5.40;99.90
48686;DHT22;34485;51.536;3.816;2023-01-31T07:05:03;5.40;99.90
48686;DHT22;34485;51.536;3.816;2023-01-31T07:07:29;5.40;99.90
48686;DHT22;34485;51.536;3.816;2023-01-31T07:09:54;5.40;99.90
48686;DHT22;34485;51.536;3.816;2023-01-31T07:12:21;5.40;99.90
48686;DHT22;34485;51.536;3.816;2023-01-31T07:14:46;5.50;99.90
48686;DHT22;34485;51.536;3.816;2023-01-31T07:17:13;5.50;99.90
48686;DHT22;34485;51.536;3.816;2023-01-31T07:19:38;5.50;99.90
48686;DHT22;34485;51.536;3.816;2023-01-31T07:22:04;5.50;99.90
48686;DHT22;34485;51.536;3.816;2023-01-31T07:24:32;5.50;99.90
48686;DHT22;34485;51.536;3.816;2023-01-31T07:27:03;5.50;99.90
48686;DHT22;34485;51.536;3.816;2023-01-31T07:29:28;5.50;99.90
48686;DHT22;34485;51.536;3.816;2023-01-31T07:31:54;5.60;99.90
48686;DHT22;34485;51.536;3.816;2023-01-31T07:34:20;5.50;99.90
48686;DHT22;34485;51.536;3.816;2023-01-31T07:36:48;5.60;99.90
48686;DHT22;34485;51.536;3.816;2023-01-31T07:39:13;5.60;99.90
48686;DHT22;34485;51.536;3.816;2023-01-31T07:41:39;5.60;99.90
48686;DHT22;34485;51.536;3.816;2023-01-31T07:44:04;5.70;99.90
48686;DHT22;34485;51.536;3.816;2023-01-31T07:46:33;5.60;99.90
48686;DHT22;34485;51.536;3.816;2023-01-31T07:48:59;5.60;99.90
48686;DHT22;34485;51.536;3.816;2023-01-31T07:51:27;5.70;99.90
48686;DHT22;34485;51.536;3.816;2023-01-31T07:53:52;5.70;99.90
48686;DHT22;34485;51.536;3.816;2023-01-31T07:56:19;5.70;99.90
48686;DHT22;34485;51.536;3.816;2023-01-31T07:58:46;5.80;99.90
48686;DHT22;34485;51.536;3.816;2023-01-31T08:01:20;5.80;99.90
48686;DHT22;34485;51.536;3.816;2023-01-31T08:04:08;5.80;99.90
48686;DHT22;34485;51.536;3.816;2023-01-31T08:06:35;5.80;99.90
48686;DHT22;34485;51.536;3.816;2023-01-31T08:09:01;5.80;99.90
48686;DHT22;34485;51.536;3.816;2023-01-31T08:11:27;5.90;99.90
48686;DHT22;34485;51.536;3.816;2023-01-31T08:13:53;5.80;99.90
48686;DHT22;34485;51.536;3.816;2023-01-31T08:16:18;5.80;99.90
48686;DHT22;34485;51.536;3.816;2023-01-31T08:18:46;5.90;99.90
48686;DHT22;34485;51.536;3.816;2023-01-31T08:21:12;5.90;99.90
48686;DHT22;34485;51.536;3.816;2023-01-31T08:23:38;5.90;99.90
48686;DHT22;34485;51.536;3.816;2023-01-31T08:26:17;5.90;99.90
48686;DHT22;34485;51.536;3.816;2023-01-31T08:28:44;6.00;99.90
48686;DHT22;34485;51.536;3.816;2023-01-31T08:31:17;6.00;99.90
48686;DHT22;34485;51.536;3.816;2023-01-31T08:33:43;6.00;99.90
48686;DHT22;34485;51.536;3.816;2023-01-31T08:36:21;6.10;99.90
48686;DHT22;34485;51.536;3.816;2023-01-31T08:38:47;6.10;99.90
48686;DHT22;34485;51.536;3.816;2023-01-31T08:41:13;6.10;99.90
48686;DHT22;34485;51.536;3.816;2023-01-31T08:43:39;6.20;99.90
48686;DHT22;34485;51.536;3.816;2023-01-31T08:46:05;6.20;99.90
48686;DHT22;34485;51.536;3.816;2023-01-31T08:48:35;6.20;99.90
48686;DHT22;34485;51.536;3.816;2023-01-31T08:51:04;6.20;99.90
48686;DHT22;34485;51.536;3.816;2023-01-31T08:53:32;6.20;99.90
48686;DHT22;34485;51.536;3.816;2023-01-31T08:56:04;6.20;99.90
48686;DHT22;34485;51.536;3.816;2023-01-31T08:58:52;6.20;99.90
48686;DHT22;34485;51.536;3.816;2023-01-31T09:01:19;6.10;99.90
48686;DHT22;34485;51.536;3.816;2023-01-31T09:03:46;6.10;99.90
48686;DHT22;34485;51.536;3.816;2023-01-31T09:06:17;6.10;99.90
48686;DHT22;34485;51.536;3.816;2023-01-31T09:08:44;6.00;99.90
48686;DHT22;34485;51.536;3.816;2023-01-31T09:11:10;6.00;99.90
48686;DHT22;34485;51.536;3.816;2023-01-31T09:13:35;6.10;99.90
48686;DHT22;34485;51.536;3.816;2023-01-31T09:16:09;6.30;99.90
48686;DHT22;34485;51.536;3.816;2023-01-31T09:21:22;7.00;99.90
48686;DHT22;34485;51.536;3.816;2023-01-31T09:23:52;7.20;99.90
48686;DHT22;34485;51.536;3.816;2023-01-31T09:28:44;7.20;99.90
48686;DHT22;34485;51.536;3.816;2023-01-31T09:31:13;7.30;99.90
48686;DHT22;34485;51.536;3.816;2023-01-31T09:33:40;7.50;99.90
48686;DHT22;34485;51.536;3.816;2023-01-31T09:36:11;7.80;99.90
48686;DHT22;34485;51.536;3.816;2023-01-31T09:38:37;8.10;99.90
48686;DHT22;34485;51.536;3.816;2023-01-31T09:43:48;8.50;99.90
48686;DHT22;34485;51.536;3.816;2023-01-31T09:46:19;8.50;99.90
48686;DHT22;34485;51.536;3.816;2023-01-31T09:48:50;8.60;99.90
48686;DHT22;34485;51.536;3.816;2023-01-31T09:51:17;8.90;99.90
48686;DHT22;34485;51.536;3.816;2023-01-31T09:53:44;9.20;99.90
48686;DHT22;34485;51.536;3.816;2023-01-31T09:56:29;9.10;99.90
48686;DHT22;34485;51.536;3.816;2023-01-31T10:09:56;8.20;99.90
48686;DHT22;34485;51.536;3.816;2023-01-31T10:12:44;8.00;99.90
48686;DHT22;34485;51.536;3.816;2023-01-31T10:15:18;8.00;99.90
48686;DHT22;34485;51.536;3.816;2023-01-31T10:17:51;7.90;99.90
48686;DHT22;34485;51.536;3.816;2023-01-31T10:20:51;7.90;99.90
48686;DHT22;34485;51.536;3.816;2023-01-31T10:23:55;7.90;99.90
48686;DHT22;34485;51.536;3.816;2023-01-31T10:26:27;8.00;99.90
48686;DHT22;34485;51.536;3.816;2023-01-31T10:28:59;8.00;99.90
48686;DHT22;34485;51.536;3.816;2023-01-31T10:31:35;8.30;99.90
48686;DHT22;34485;51.536;3.816;2023-01-31T10:34:31;8.40;99.90
48686;DHT22;34485;51.536;3.816;2023-01-31T10:39:35;8.40;99.90
48686;DHT22;34485;51.536;3.816;2023-01-31T10:45:04;8.50;99.90
48686;DHT22;34485;51.536;3.816;2023-01-31T10:47:40;8.50;99.90
48686;DHT22;34485;51.536;3.816;2023-01-31T10:50:24;8.50;99.90
48686;DHT22;34485;51.536;3.816;2023-01-31T10:53:12;8.50;99.90
48686;DHT22;34485;51.536;3.816;2023-01-31T10:58:18;8.50;99.90
48686;DHT22;34485;51.536;3.816;2023-01-31T11:00:44;8.50;99.90
48686;DHT22;34485;51.536;3.816;2023-01-31T11:03:13;8.50;99.90
48686;DHT22;34485;51.536;3.816;2023-01-31T11:05:49;8.50;99.90
48686;DHT22;34485;51.536;3.816;2023-01-31T11:08:32;8.50;99.90
48686;DHT22;34485;51.536;3.816;2023-01-31T11:11:05;8.50;99.90
48686;DHT22;34485;51.536;3.816;2023-01-31T11:13:31;8.60;99.90
48686;DHT22;34485;51.536;3.816;2023-01-31T11:15:56;8.60;99.90
48686;DHT22;34485;51.536;3.816;2023-01-31T11:18:34;8.70;99.90
48686;DHT22;34485;51.536;3.816;2023-01-31T11:21:02;8.70;99.90
48686;DHT22;34485;51.536;3.816;2023-01-31T11:23:30;8.70;99.90
48686;DHT22;34485;51.536;3.816;2023-01-31T11:25:57;8.70;99.90
48686;DHT22;34485;51.536;3.816;2023-01-31T11:28:38;8.60;99.90
48686;DHT22;34485;51.536;3.816;2023-01-31T11:31:06;8.60;99.90
48686;DHT22;34485;51.536;3.816;2023-01-31T11:33:43;8.60;99.90
48686;DHT22;34485;51.536;3.816;2023-01-31T11:36:13;8.60;99.90
48686;DHT22;34485;51.536;3.816;2023-01-31T11:38:39;8.60;99.90
48686;DHT22;34485;51.536;3.816;2023-01-31T11:41:26;8.70;99.90
48686;DHT22;34485;51.536;3.816;2023-01-31T11:44:12;8.70;99.90
48686;DHT22;34485;51.536;3.816;2023-01-31T11:46:55;8.60;99.90
48686;DHT22;34485;51.536;3.816;2023-01-31T11:49:27;8.60;99.90
48686;DHT22;34485;51.536;3.816;2023-01-31T11:51:54;8.50;99.90
48686;DHT22;34485;51.536;3.816;2023-01-31T11:54:25;8.50;99.90
48686;DHT22;34485;51.536;3.816;2023-01-31T11:56:51;8.50;99.90
48686;DHT22;34485;51.536;3.816;2023-01-31T11:59:22;8.50;99.90
48686;DHT22;34485;51.536;3.816;2023-01-31T12:01:51;8.50;99.90
48686;DHT22;34485;51.536;3.816;2023-01-31T12:04:24;8.50;99.90
48686;DHT22;34485;51.536;3.816;2023-01-31T12:06:56;8.50;99.90
48686;DHT22;34485;51.536;3.816;2023-01-31T12:09:25;8.40;99.90
48686;DHT22;34485;51.536;3.816;2023-01-31T12:14:22;8.40;99.90
48686;DHT22;34485;51.536;3.816;2023-01-31T12:16:52;8.40;99.90
48686;DHT22;34485;51.536;3.816;2023-01-31T12:22:24;8.40;99.90
48686;DHT22;34485;51.536;3.816;2023-01-31T12:25:12;8.40;99.90
48686;DHT22;34485;51.536;3.816;2023-01-31T12:30:20;8.50;99.90
48686;DHT22;34485;51.536;3.816;2023-01-31T12:41:40;8.60;99.90
48686;DHT22;34485;51.536;3.816;2023-01-31T12:50:32;8.50;99.90
48686;DHT22;34485;51.536;3.816;2023-01-31T12:55:16;8.40;99.90
48686;DHT22;34485;51.536;3.816;2023-01-31T13:00:53;8.60;99.90
48686;DHT22;34485;51.536;3.816;2023-01-31T13:03:27;8.80;99.90
48686;DHT22;34485;51.536;3.816;2023-01-31T13:06:00;8.80;99.90
48686;DHT22;34485;51.536;3.816;2023-01-31T13:08:30;8.80;99.90
48686;DHT22;34485;51.536;3.816;2023-01-31T13:10:58;8.80;99.90
48686;DHT22;34485;51.536;3.816;2023-01-31T13:13:51;8.80;99.90
48686;DHT22;34485;51.536;3.816;2023-01-31T13:16:36;8.80;99.90
48686;DHT22;34485;51.536;3.816;2023-01-31T13:19:06;8.80;99.90
48686;DHT22;34485;51.536;3.816;2023-01-31T13:21:42;8.80;99.90
48686;DHT22;34485;51.536;3.816;2023-01-31T13:24:17;8.90;99.90
48686;DHT22;34485;51.536;3.816;2023-01-31T13:29:37;9.20;99.90
48686;DHT22;34485;51.536;3.816;2023-01-31T13:32:14;9.20;99.90
48686;DHT22;34485;51.536;3.816;2023-01-31T13:34:51;9.10;99.90
48686;DHT22;34485;51.536;3.816;2023-01-31T13:37:18;9.00;99.90
48686;DHT22;34485;51.536;3.816;2023-01-31T13:40:02;8.90;99.90
48686;DHT22;34485;51.536;3.816;2023-01-31T13:42:29;8.80;99.90
48686;DHT22;34485;51.536;3.816;2023-01-31T13:44:55;8.80;99.90
48686;DHT22;34485;51.536;3.816;2023-01-31T13:47:50;9.00;99.90
48686;DHT22;34485;51.536;3.816;2023-01-31T13:50:44;9.20;99.90
48686;DHT22;34485;51.536;3.816;2023-01-31T13:53:18;9.30;99.90
48686;DHT22;34485;51.536;3.816;2023-01-31T13:55:46;9.40;99.90
48686;DHT22;34485;51.536;3.816;2023-01-31T13:58:22;9.30;99.90
48686;DHT22;34485;51.536;3.816;2023-01-31T14:01:15;9.30;99.90
48686;DHT22;34485;51.536;3.816;2023-01-31T14:06:55;9.20;99.90
48686;DHT22;34485;51.536;3.816;2023-01-31T14:09:33;9.20;99.90
48686;DHT22;34485;51.536;3.816;2023-01-31T14:14:43;9.10;99.90
48686;DHT22;34485;51.536;3.816;2023-01-31T14:20:24;9.10;99.90
48686;DHT22;34485;51.536;3.816;2023-01-31T14:23:33;9.10;99.90
48686;DHT22;34485;51.536;3.816;2023-01-31T14:29:09;9.10;99.90
48686;DHT22;34485;51.536;3.816;2023-01-31T14:31:39;9.10;99.90
48686;DHT22;34485;51.536;3.816;2023-01-31T14:34:05;9.10;99.90
48686;DHT22;34485;51.536;3.816;2023-01-31T14:39:37;9.10;99.90
48686;DHT22;34485;51.536;3.816;2023-01-31T14:51:05;9.00;99.90
48686;DHT22;34485;51.536;3.816;2023-01-31T14:58:57;8.90;99.90
48686;DHT22;34485;51.536;3.816;2023-01-31T15:01:31;8.90;99.90
48686;DHT22;34485;51.536;3.816;2023-01-31T15:03:59;8.90;99.90
48686;DHT22;34485;51.536;3.816;2023-01-31T15:06:27;8.90;99.90
48686;DHT22;34485;51.536;3.816;2023-01-31T15:11:56;8.80;99.90
48686;DHT22;34485;51.536;3.816;2023-01-31T15:14:34;8.80;99.90
48686;DHT22;34485;51.536;3.816;2023-01-31T15:17:13;8.80;99.90
48686;DHT22;34485;51.536;3.816;2023-01-31T15:19:45;8.80;99.90
48686;DHT22;34485;51.536;3.816;2023-01-31T15:22:15;8.80;99.90
48686;DHT22;34485;51.536;3.816;2023-01-31T15:24:45;8.80;99.90
48686;DHT22;34485;51.536;3.816;2023-01-31T15:27:29;8.70;99.90
48686;DHT22;34485;51.536;3.816;2023-01-31T15:32:27;8.70;99.90
48686;DHT22;34485;51.536;3.816;2023-01-31T15:35:12;8.80;99.90
48686;DHT22;34485;51.536;3.816;2023-01-31T15:37:39;8.70;99.90
48686;DHT22;34485;51.536;3.816;2023-01-31T15:42:40;8.70;99.90
48686;DHT22;34485;51.536;3.816;2023-01-31T15:45:24;8.70;99.90
48686;DHT22;34485;51.536;3.816;2023-01-31T15:48:13;8.60;99.90
48686;DHT22;34485;51.536;3.816;2023-01-31T15:50:57;8.60;99.90
48686;DHT22;34485;51.536;3.816;2023-01-31T15:53:25;8.60;99.90
48686;DHT22;34485;51.536;3.816;2023-01-31T15:55:55;8.60;99.90
48686;DHT22;34485;51.536;3.816;2023-01-31T15:58:25;8.60;99.90
48686;DHT22;34485;51.536;3.816;2023-01-31T16:00:56;8.60;99.90
48686;DHT22;34485;51.536;3.816;2023-01-31T16:03:35;8.60;99.90
48686;DHT22;34485;51.536;3.816;2023-01-31T16:06:04;8.50;99.90
48686;DHT22;34485;51.536;3.816;2023-01-31T16:08:36;8.50;99.90
48686;DHT22;34485;51.536;3.816;2023-01-31T16:11:07;8.50;99.90
48686;DHT22;34485;51.536;3.816;2023-01-31T16:13:37;8.40;99.90
48686;DHT22;34485;51.536;3.816;2023-01-31T16:16:08;8.30;99.90
48686;DHT22;34485;51.536;3.816;2023-01-31T16:18:40;8.30;99.90
48686;DHT22;34485;51.536;3.816;2023-01-31T16:21:30;8.20;99.90
48686;DHT22;34485;51.536;3.816;2023-01-31T16:24:07;8.10;99.90
48686;DHT22;34485;51.536;3.816;2023-01-31T16:26:37;8.00;99.90
48686;DHT22;34485;51.536;3.816;2023-01-31T16:29:14;7.90;99.90
48686;DHT22;34485;51.536;3.816;2023-01-31T16:31:48;7.80;99.90
48686;DHT22;34485;51.536;3.816;2023-01-31T16:34:30;7.80;99.90
48686;DHT22;34485;51.536;3.816;2023-01-31T16:37:04;7.70;99.90
48686;DHT22;34485;51.536;3.816;2023-01-31T16:39:45;7.60;99.90
48686;DHT22;34485;51.536;3.816;2023-01-31T16:44:42;7.50;99.90
48686;DHT22;34485;51.536;3.816;2023-01-31T16:50:29;7.40;99.90
48686;DHT22;34485;51.536;3.816;2023-01-31T16:55:41;7.50;99.90
48686;DHT22;34485;51.536;3.816;2023-01-31T16:58:10;7.50;99.90
48686;DHT22;34485;51.536;3.816;2023-01-31T17:00:36;7.50;99.90
48686;DHT22;34485;51.536;3.816;2023-01-31T17:03:12;7.40;99.90
48686;DHT22;34485;51.536;3.816;2023-01-31T17:05:40;7.40;99.90
48686;DHT22;34485;51.536;3.816;2023-01-31T17:08:17;7.30;99.90
48686;DHT22;34485;51.536;3.816;2023-01-31T17:10:45;7.30;99.90
48686;DHT22;34485;51.536;3.816;2023-01-31T17:13:20;7.40;99.90
48686;DHT22;34485;51.536;3.816;2023-01-31T17:15:47;7.30;99.90
48686;DHT22;34485;51.536;3.816;2023-01-31T17:18:13;7.30;99.90
48686;DHT22;34485;51.536;3.816;2023-01-31T17:20:41;7.30;99.90
48686;DHT22;34485;51.536;3.816;2023-01-31T17:23:08;7.30;99.90
48686;DHT22;34485;51.536;3.816;2023-01-31T17:25:34;7.20;99.90
48686;DHT22;34485;51.536;3.816;2023-01-31T17:28:03;7.20;99.90
48686;DHT22;34485;51.536;3.816;2023-01-31T17:30:30;7.20;99.90
48686;DHT22;34485;51.536;3.816;2023-01-31T17:32:57;7.20;99.90
48686;DHT22;34485;51.536;3.816;2023-01-31T17:35:40;7.20;99.90
48686;DHT22;34485;51.536;3.816;2023-01-31T17:38:06;7.20;99.90
48686;DHT22;34485;51.536;3.816;2023-01-31T17:40:32;7.20;99.90
48686;DHT22;34485;51.536;3.816;2023-01-31T17:43:03;7.20;99.90
48686;DHT22;34485;51.536;3.816;2023-01-31T17:45:29;7.30;99.90
48686;DHT22;34485;51.536;3.816;2023-01-31T17:47:54;7.20;99.90
48686;DHT22;34485;51.536;3.816;2023-01-31T17:50:26;7.10;99.90
48686;DHT22;34485;51.536;3.816;2023-01-31T17:52:52;7.10;99.90
48686;DHT22;34485;51.536;3.816;2023-01-31T17:55:18;7.10;99.90
48686;DHT22;34485;51.536;3.816;2023-01-31T17:57:47;7.00;99.90
48686;DHT22;34485;51.536;3.816;2023-01-31T18:00:14;6.90;99.90
48686;DHT22;34485;51.536;3.816;2023-01-31T18:02:41;6.80;99.90
48686;DHT22;34485;51.536;3.816;2023-01-31T18:05:15;6.80;99.90
48686;DHT22;34485;51.536;3.816;2023-01-31T18:07:41;6.70;99.90
48686;DHT22;34485;51.536;3.816;2023-01-31T18:10:08;6.70;99.90
48686;DHT22;34485;51.536;3.816;2023-01-31T18:12:34;6.60;99.90
48686;DHT22;34485;51.536;3.816;2023-01-31T18:15:00;6.50;99.90
48686;DHT22;34485;51.536;3.816;2023-01-31T18:17:26;6.50;99.90
48686;DHT22;34485;51.536;3.816;2023-01-31T18:19:52;6.40;99.90
48686;DHT22;34485;51.536;3.816;2023-01-31T18:22:17;6.40;99.90
48686;DHT22;34485;51.536;3.816;2023-01-31T18:24:44;6.30;99.90
48686;DHT22;34485;51.536;3.816;2023-01-31T18:27:13;6.30;99.90